Time;durP1;ratioP1;P1;durP2;ratioP2;P2;SDS_P1;SDS_P2;PMS_P1;PMS_P2;Temp;Humidity;BMP_temperature;BMP_pressure;BME280_temperature;BME280_humidity;BME280_pressure;Samples;Min_cycle;Max_cycle;Signal;HPM_P1;HPM_P2
2023/07/01 00:00:08;;;;;;;9.93;2.15;;;;;;;;;;4845554;29;20061;-93
2023/07/01 00:02:36;;;;;;;9.88;2.60;;;;;;;;;;4834029;29;20062;-92
2023/07/01 00:05:13;;;;;;;9.80;2.22;;;;;;;;;;4844399;29;20037;-92
2023/07/01 00:07:43;;;;;;;7.97;2.20;;;;;;;;;;4830682;29;20033;-93
2023/07/01 00:10:16;;;;;;;10.20;2.30;;;;;;;;;;4832305;29;20041;-93
2023/07/01 00:12:42;;;;;;;4.68;2.17;;;;;;;;;;4847482;29;20049;-95
2023/07/01 00:15:15;;;;;;;9.25;2.25;;;;;;;;;;4832090;29;20128;-96
2023/07/01 00:17:50;;;;;;;7.95;2.13;;;;;;;;;;4841441;29;20505;-96
2023/07/01 00:20:20;;;;;;;6.75;2.53;;;;;;;;;;4846358;29;20049;-95
2023/07/01 00:23:08;;;;;;;8.85;2.70;;;;;;;;;;4845426;29;20025;-93
2023/07/01 00:25:35;;;;;;;9.70;2.33;;;;;;;;;;4846806;29;20562;-94
2023/07/01 00:28:01;;;;;;;6.57;2.20;;;;;;;;;;4849510;29;20038;-93
2023/07/01 00:30:37;;;;;;;4.90;1.95;;;;;;;;;;4832771;29;20086;-93
2023/07/01 00:33:05;;;;;;;;;;;;;;;;;;4835493;29;20034;-93
2023/07/01 00:35:32;;;;;;;6.18;2.25;;;;;;;;;;4843675;29;20369;-93
2023/07/01 00:38:03;;;;;;;9.40;1.95;;;;;;;;;;4847941;29;20066;-93
2023/07/01 00:40:33;;;;;;;8.30;1.95;;;;;;;;;;4848496;29;20061;-93
2023/07/01 00:42:59;;;;;;;20.05;2.40;;;;;;;;;;4849320;29;20832;-94
2023/07/01 00:45:28;;;;;;;15.55;2.40;;;;;;;;;;4831472;29;20026;-93
2023/07/01 00:48:00;;;;;;;6.88;2.20;;;;;;;;;;4829572;29;20030;-94
2023/07/01 00:50:37;;;;;;;8.55;2.58;;;;;;;;;;4829470;29;20068;-94
2023/07/01 00:53:13;;;;;;;10.45;3.25;;;;;;;;;;4856266;29;20674;-94
2023/07/01 00:55:43;;;;;;;6.30;2.60;;;;;;;;;;4827497;29;20499;-95
2023/07/01 00:58:10;;;;;;;8.02;3.08;;;;;;;;;;4831503;29;20060;-94
2023/07/01 01:00:36;;;;;;;8.00;2.08;;;;;;;;;;4830843;29;20059;-94
2023/07/01 01:03:08;;;;;;;10.25;3.40;;;;;;;;;;4833991;29;20043;-94
2023/07/01 01:05:40;;;;;;;6.85;2.22;;;;;;;;;;4844007;29;20030;-94
2023/07/01 01:08:18;;;;;;;7.55;2.00;;;;;;;;;;4840666;29;20052;-94
2023/07/01 01:10:47;;;;;;;9.18;3.25;;;;;;;;;;4858638;29;20091;-94
2023/07/01 01:13:15;;;;;;;7.65;2.20;;;;;;;;;;4838285;29;20382;-94
2023/07/01 01:15:41;;;;;;;13.77;2.40;;;;;;;;;;4842753;29;20132;-95
2023/07/01 01:18:23;;;;;;;6.70;1.95;;;;;;;;;;4837121;29;20601;-94
2023/07/01 01:20:51;;;;;;;6.85;2.20;;;;;;;;;;4861143;29;20033;-95
2023/07/01 01:23:35;;;;;;;9.70;2.53;;;;;;;;;;4843937;29;20033;-94
2023/07/01 01:26:10;;;;;;;8.60;2.75;;;;;;;;;;4857901;29;20065;-94
2023/07/01 01:28:36;;;;;;;7.03;2.13;;;;;;;;;;4843245;29;20030;-94
2023/07/01 01:31:04;;;;;;;3.35;1.70;;;;;;;;;;4847499;29;20474;-95
2023/07/01 01:33:40;;;;;;;7.55;2.13;;;;;;;;;;4860597;29;20037;-92
2023/07/01 01:36:10;;;;;;;9.93;3.45;;;;;;;;;;4824647;29;20049;-95
2023/07/01 01:38:38;;;;;;;13.48;3.13;;;;;;;;;;4839569;29;20074;-94
2023/07/01 01:41:14;;;;;;;3.38;1.63;;;;;;;;;;4834547;29;20068;-93
2023/07/01 01:44:04;;;;;;;;;;;;;;;;;;;;;
2023/07/01 01:46:34;;;;;;;2.95;1.73;;;;;;;;;;4856699;29;20059;-94
2023/07/01 01:49:03;;;;;;;13.75;2.67;;;;;;;;;;4827853;29;20630;-94
2023/07/01 01:51:39;;;;;;;10.68;2.30;;;;;;;;;;4844529;29;20106;-94
2023/07/01 01:54:06;;;;;;;10.27;2.50;;;;;;;;;;4856754;29;20048;-94
2023/07/01 01:56:42;;;;;;;9.07;3.20;;;;;;;;;;4841774;29;20517;-95
2023/07/01 01:59:15;;;;;;;14.35;3.45;;;;;;;;;;4839997;29;20041;-95
2023/07/01 02:01:53;;;;;;;9.55;2.80;;;;;;;;;;4835078;29;20030;-95
2023/07/01 02:04:40;;;;;;;9.07;3.20;;;;;;;;;;4835168;29;20054;-94
2023/07/01 02:07:06;;;;;;;6.75;3.78;;;;;;;;;;4838196;29;20144;-95
2023/07/01 02:09:33;;;;;;;12.18;3.30;;;;;;;;;;4829140;29;20045;-95
2023/07/01 02:11:59;;;;;;;9.27;3.50;;;;;;;;;;4828904;29;20034;-96
2023/07/01 02:14:34;;;;;;;7.65;4.10;;;;;;;;;;4826953;29;20038;-95
2023/07/01 02:17:00;;;;;;;9.45;3.60;;;;;;;;;;4823895;29;20037;-96
2023/07/01 02:19:26;;;;;;;16.05;3.40;;;;;;;;;;4846120;29;20136;-96
2023/07/01 02:21:53;;;;;;;16.60;3.97;;;;;;;;;;4828125;29;20050;-95
2023/07/01 02:24:19;;;;;;;7.60;3.47;;;;;;;;;;4820800;29;20571;-95
2023/07/01 02:26:45;;;;;;;7.60;2.85;;;;;;;;;;4827277;29;20540;-96
2023/07/01 02:29:12;;;;;;;13.20;4.30;;;;;;;;;;4826341;29;20514;-95
2023/07/01 02:31:47;;;;;;;8.20;3.58;;;;;;;;;;4840547;29;20041;-95
2023/07/01 02:34:14;;;;;;;5.75;3.20;;;;;;;;;;4822460;29;20038;-96
2023/07/01 02:36:43;;;;;;;7.75;3.75;;;;;;;;;;4839717;29;20041;-96
2023/07/01 02:39:10;;;;;;;11.60;3.13;;;;;;;;;;4837333;29;20052;-95
2023/07/01 02:41:39;;;;;;;9.50;3.42;;;;;;;;;;4839376;29;20037;-95
2023/07/01 02:44:05;;;;;;;4.95;2.60;;;;;;;;;;4851248;29;20029;-95
2023/07/01 02:46:58;;;;;;;7.40;3.03;;;;;;;;;;4840760;29;20048;-95
2023/07/01 02:49:24;;;;;;;8.90;3.65;;;;;;;;;;4811415;29;20049;-95
2023/07/01 02:51:50;;;;;;;10.57;3.63;;;;;;;;;;4843164;29;20066;-96
2023/07/01 02:54:17;;;;;;;14.52;3.95;;;;;;;;;;4837214;29;20097;-95
2023/07/01 02:56:47;;;;;;;10.45;4.22;;;;;;;;;;4826335;29;20041;-95
2023/07/01 02:59:14;;;;;;;11.55;3.88;;;;;;;;;;4824295;29;20069;-96
2023/07/01 03:01:44;;;;;;;20.05;4.05;;;;;;;;;;4858708;29;20128;-96
2023/07/01 03:04:14;;;;;;;6.57;3.83;;;;;;;;;;4855016;29;20029;-95
2023/07/01 03:06:40;;;;;;;8.65;3.50;;;;;;;;;;4855605;29;20029;-95
2023/07/01 03:09:07;;;;;;;9.43;4.65;;;;;;;;;;4829001;29;20048;-94
2023/07/01 03:11:36;;;;;;;15.98;4.93;;;;;;;;;;4825316;29;20042;-95
2023/07/01 03:14:03;;;;;;;14.85;4.57;;;;;;;;;;4840057;29;20546;-94
2023/07/01 03:16:41;;;;;;;11.20;4.18;;;;;;;;;;4827974;29;20033;-94
2023/07/01 03:19:23;;;;;;;8.95;3.75;;;;;;;;;;4823138;29;20065;-94
2023/07/01 03:21:49;;;;;;;14.20;4.47;;;;;;;;;;4826744;29;20366;-95
2023/07/01 03:24:16;;;;;;;20.02;4.45;;;;;;;;;;4824807;29;20037;-94
2023/07/01 03:26:43;;;;;;;9.57;5.10;;;;;;;;;;4843914;29;20029;-94
2023/07/01 03:29:14;;;;;;;8.85;4.38;;;;;;;;;;4826411;29;20088;-93
2023/07/01 03:31:45;;;;;;;15.25;5.53;;;;;;;;;;4819258;29;20041;-94
2023/07/01 03:34:12;;;;;;;13.05;5.13;;;;;;;;;;4837269;29;20048;-93
2023/07/01 03:36:39;;;;;;;3.88;2.75;;;;;;;;;;4832611;29;20034;-94
2023/07/01 03:39:05;;;;;;;10.30;4.40;;;;;;;;;;4821919;29;20537;-94
2023/07/01 03:41:31;;;;;;;14.52;4.05;;;;;;;;;;4836907;29;20484;-95
2023/07/01 03:43:57;;;;;;;10.52;5.13;;;;;;;;;;4857450;29;20057;-94
2023/07/01 03:46:24;;;;;;;5.28;2.97;;;;;;;;;;4841397;29;20621;-93
2023/07/01 03:48:50;;;;;;;9.35;4.63;;;;;;;;;;4845595;29;20049;-93
2023/07/01 03:51:16;;;;;;;8.75;4.13;;;;;;;;;;4831929;29;20903;-94
2023/07/01 03:53:43;;;;;;;8.10;4.55;;;;;;;;;;4827697;29;20037;-93
2023/07/01 03:56:09;;;;;;;11.18;4.00;;;;;;;;;;4827180;29;20079;-94
2023/07/01 03:58:39;;;;;;;9.85;4.40;;;;;;;;;;4845469;29;20045;-94
2023/07/01 04:01:08;;;;;;;16.23;4.43;;;;;;;;;;4839622;29;20525;-94
2023/07/01 04:03:35;;;;;;;11.95;4.18;;;;;;;;;;4843253;29;20025;-93
2023/07/01 04:06:05;;;;;;;11.18;4.70;;;;;;;;;;4840497;29;20098;-94
2023/07/01 04:08:34;;;;;;;12.82;4.13;;;;;;;;;;4826478;29;20030;-94
2023/07/01 04:11:00;;;;;;;7.70;3.28;;;;;;;;;;4825749;29;20140;-95
2023/07/01 04:13:28;;;;;;;7.88;3.35;;;;;;;;;;4841521;29;20044;-94
2023/07/01 04:15:54;;;;;;;6.88;4.10;;;;;;;;;;4841580;29;20037;-94
2023/07/01 04:18:20;;;;;;;13.05;4.32;;;;;;;;;;4820255;29;20042;-94
2023/07/01 04:20:47;;;;;;;12.48;3.90;;;;;;;;;;4829794;29;20053;-95
2023/07/01 04:23:15;;;;;;;4.15;3.25;;;;;;;;;;4856118;29;20790;-94
2023/07/01 04:25:41;;;;;;;10.55;4.20;;;;;;;;;;4841049;29;20037;-94
2023/07/01 04:28:08;;;;;;;9.40;4.40;;;;;;;;;;4830589;29;20041;-94
2023/07/01 04:30:36;;;;;;;10.70;3.88;;;;;;;;;;4827574;29;20037;-94
2023/07/01 04:33:07;;;;;;;7.22;4.28;;;;;;;;;;4847579;29;20095;-95
2023/07/01 04:35:33;;;;;;;6.75;4.00;;;;;;;;;;4831299;29;20037;-94
2023/07/01 04:37:59;;;;;;;10.00;3.35;;;;;;;;;;4824173;29;20319;-95
2023/07/01 04:40:26;;;;;;;9.85;3.97;;;;;;;;;;4824682;29;20030;-94
2023/07/01 04:42:53;;;;;;;11.43;3.22;;;;;;;;;;4827424;29;20098;-94
2023/07/01 04:45:22;;;;;;;7.00;3.65;;;;;;;;;;4824482;29;20041;-95
2023/07/01 04:47:49;;;;;;;12.25;4.28;;;;;;;;;;4830858;29;20132;-96
2023/07/01 04:50:16;;;;;;;6.22;3.50;;;;;;;;;;4841979;29;20034;-95
2023/07/01 04:52:43;;;;;;;8.63;3.38;;;;;;;;;;4836997;29;20035;-94
2023/07/01 04:55:10;;;;;;;6.38;4.03;;;;;;;;;;4830933;29;20073;-94
2023/07/01 04:57:37;;;;;;;10.70;3.65;;;;;;;;;;4855831;29;20049;-94
2023/07/01 05:00:05;;;;;;;7.32;3.97;;;;;;;;;;4825211;29;20175;-93
2023/07/01 05:02:31;;;;;;;9.93;3.70;;;;;;;;;;4826336;29;20034;-95
2023/07/01 05:04:58;;;;;;;11.55;4.28;;;;;;;;;;4841536;29;20083;-94
2023/07/01 05:07:24;;;;;;;8.90;3.47;;;;;;;;;;4826812;29;20037;-94
2023/07/01 05:09:53;;;;;;;7.35;4.32;;;;;;;;;;4829278;29;20049;-95
2023/07/01 05:12:19;;;;;;;10.68;4.95;;;;;;;;;;4834374;29;20033;-95
2023/07/01 05:14:45;;;;;;;13.52;4.53;;;;;;;;;;4840064;29;20041;-95
2023/07/01 05:17:18;;;;;;;14.48;5.45;;;;;;;;;;4843073;29;20034;-95
2023/07/01 05:19:44;;;;;;;9.43;5.13;;;;;;;;;;4843022;29;20079;-94
2023/07/01 05:22:17;;;;;;;9.55;5.05;;;;;;;;;;4840170;29;21410;-93
2023/07/01 05:24:43;;;;;;;8.45;4.32;;;;;;;;;;4839110;29;20041;-95
2023/07/01 05:27:20;;;;;;;7.07;4.65;;;;;;;;;;4841184;29;20049;-94
2023/07/01 05:29:46;;;;;;;8.48;4.22;;;;;;;;;;4838161;29;20025;-94
2023/07/01 05:32:15;;;;;;;11.52;3.90;;;;;;;;;;4837591;29;20069;-95
2023/07/01 05:34:47;;;;;;;13.68;5.53;;;;;;;;;;4837328;29;20069;-93
2023/07/01 05:37:17;;;;;;;9.35;4.80;;;;;;;;;;4789182;29;20215;-95
2023/07/01 05:39:44;;;;;;;8.35;4.88;;;;;;;;;;4805475;29;20441;-94
2023/07/01 05:42:13;;;;;;;10.98;4.35;;;;;;;;;;4800622;29;20039;-95
2023/07/01 05:44:45;;;;;;;5.68;3.40;;;;;;;;;;4805178;29;20115;-94
2023/07/01 05:47:11;;;;;;;10.43;4.25;;;;;;;;;;4807036;29;20135;-94
2023/07/01 05:49:40;;;;;;;8.93;4.28;;;;;;;;;;4791757;29;20030;-95
2023/07/01 05:52:12;;;;;;;11.68;5.13;;;;;;;;;;4790143;29;20095;-95
2023/07/01 05:54:49;;;;;;;8.55;4.68;;;;;;;;;;4810717;29;20050;-95
2023/07/01 05:57:15;;;;;;;9.95;4.88;;;;;;;;;;4790625;29;20074;-94
2023/07/01 05:59:47;;;;;;;7.25;4.10;;;;;;;;;;4805917;29;20503;-95
2023/07/01 06:02:21;;;;;;;5.82;4.28;;;;;;;;;;4809837;29;20369;-94
2023/07/01 06:04:49;;;;;;;9.35;4.93;;;;;;;;;;4790808;29;20696;-93
2023/07/01 06:07:29;;;;;;;;;;;;;;;;;;;;;
2023/07/01 06:09:56;;;;;;;11.73;4.70;;;;;;;;;;4809776;29;20030;-93
2023/07/01 06:12:22;;;;;;;6.05;4.32;;;;;;;;;;4810264;29;20481;-93
2023/07/01 06:14:55;;;;;;;10.10;4.80;;;;;;;;;;4814344;29;20030;-94
2023/07/01 06:17:21;;;;;;;9.40;3.75;;;;;;;;;;4789968;29;20050;-95
2023/07/01 06:20:00;;;;;;;8.43;4.55;;;;;;;;;;4794406;29;20087;-93
2023/07/01 06:22:33;;;;;;;10.13;4.80;;;;;;;;;;4792951;29;20180;-93
2023/07/01 06:25:00;;;;;;;10.27;5.78;;;;;;;;;;4801765;29;20147;-94
2023/07/01 06:27:26;;;;;;;10.60;6.10;;;;;;;;;;4803656;29;20035;-93
2023/07/01 06:29:58;;;;;;;13.40;5.80;;;;;;;;;;4815699;29;20030;-94
2023/07/01 06:32:24;;;;;;;13.60;5.75;;;;;;;;;;4789787;29;20039;-94
2023/07/01 06:34:54;;;;;;;10.75;5.57;;;;;;;;;;4783382;29;20030;-95
2023/07/01 06:37:20;;;;;;;10.82;6.93;;;;;;;;;;4802957;29;20047;-95
2023/07/01 06:39:46;;;;;;;12.00;5.78;;;;;;;;;;4780281;29;20034;-96
2023/07/01 06:42:12;;;;;;;12.10;5.68;;;;;;;;;;4803764;29;20239;-95
2023/07/01 06:47:48;;;;;;;10.02;5.70;;;;;;;;;;4768142;30;20040;-95
2023/07/01 06:50:15;;;;;;;12.48;5.82;;;;;;;;;;4741432;30;20501;-95
2023/07/01 06:52:41;;;;;;;10.70;5.95;;;;;;;;;;4751971;30;20150;-95
2023/07/01 06:55:29;;;;;;;12.13;6.07;;;;;;;;;;4772441;29;20087;-94
2023/07/01 06:57:54;;;;;;;19.58;6.78;;;;;;;;;;4818246;29;20236;-96
2023/07/01 07:00:20;;;;;;;10.05;5.90;;;;;;;;;;4793984;29;20102;-95
2023/07/01 07:02:47;;;;;;;8.73;5.65;;;;;;;;;;4788121;29;20043;-96
2023/07/01 07:05:13;;;;;;;7.93;5.65;;;;;;;;;;4790463;29;20039;-94
2023/07/01 07:08:09;;;;;;;12.48;5.03;;;;;;;;;;4791486;29;20034;-96
2023/07/01 07:10:38;;;;;;;16.13;5.78;;;;;;;;;;4808427;29;20072;-95
2023/07/01 07:13:04;;;;;;;12.32;6.30;;;;;;;;;;4793046;29;20042;-96
2023/07/01 07:15:31;;;;;;;9.75;5.70;;;;;;;;;;4791730;29;20389;-96
2023/07/01 07:21:10;;;;;;;12.18;5.82;;;;;;;;;;4780996;29;20348;-94
2023/07/01 07:23:59;;;;;;;8.10;5.63;;;;;;;;;;4792243;29;20058;-95
2023/07/01 07:26:26;;;;;;;6.07;3.78;;;;;;;;;;4807528;29;20099;-95
2023/07/01 07:28:52;;;;;;;8.32;5.45;;;;;;;;;;4786972;29;20861;-93
2023/07/01 07:31:19;;;;;;;9.00;5.20;;;;;;;;;;4783294;29;20110;-92
2023/07/01 07:34:15;;;;;;;12.77;4.80;;;;;;;;;;4793854;29;20064;-92
2023/07/01 07:36:41;;;;;;;7.30;5.05;;;;;;;;;;4802288;29;20492;-92
2023/07/01 07:39:10;;;;;;;19.73;5.72;;;;;;;;;;4796333;29;20042;-91
2023/07/01 07:41:55;;;;;;;15.45;5.50;;;;;;;;;;4807951;29;20027;-92
2023/07/01 07:44:33;;;;;;;5.68;3.95;;;;;;;;;;4813139;29;20034;-92
2023/07/01 07:47:00;;;;;;;4.97;3.47;;;;;;;;;;4811468;29;20090;-93
2023/07/01 07:49:28;;;;;;;4.03;2.80;;;;;;;;;;4797940;29;20061;-93
2023/07/01 07:51:55;;;;;;;7.47;3.92;;;;;;;;;;4813082;29;20069;-91
2023/07/01 07:54:31;;;;;;;14.68;4.22;;;;;;;;;;4788747;29;20046;-93
2023/07/01 07:56:59;;;;;;;7.75;3.72;;;;;;;;;;4799942;29;20031;-93
2023/07/01 08:06:00;;;;;;;6.25;4.00;;;;;;;;;;4805906;29;20059;-93
2023/07/01 08:08:30;;;;;;;6.95;4.53;;;;;;;;;;4775089;30;20133;-92
2023/07/01 08:10:56;;;;;;;6.75;4.50;;;;;;;;;;4775234;29;20046;-93
2023/07/01 08:23:56;;;;;;;;;;;;;;;;;;;;;
2023/07/01 08:26:35;;;;;;;4.22;3.15;;;;;;;;;;4708002;30;20045;-93
2023/07/01 08:29:32;;;;;;;6.23;3.50;;;;;;;;;;4692981;30;20069;-92
2023/07/01 08:32:02;;;;;;;5.65;4.00;;;;;;;;;;4624825;31;20050;-92
2023/07/01 08:34:29;;;;;;;5.38;3.72;;;;;;;;;;4661942;30;20057;-90
2023/07/01 08:37:05;;;;;;;5.15;3.63;;;;;;;;;;4638439;30;20145;-93
2023/07/01 08:39:34;;;;;;;5.70;4.05;;;;;;;;;;4645805;30;20050;-92
2023/07/01 08:42:55;;;;;;;;;;;;;;;;;;;;;
2023/07/01 08:45:14;;;;;;;5.82;4.03;;;;;;;;;;4645767;30;20508;-92
2023/07/01 08:47:41;;;;;;;8.70;2.88;;;;;;;;;;4677509;30;20039;-93
2023/07/01 08:50:49;;;;;;;4.22;2.50;;;;;;;;;;4659559;30;20106;-94
2023/07/01 08:53:50;;;;;;;;;;;;;;;;;;;;;
2023/07/01 08:56:18;;;;;;;5.20;4.07;;;;;;;;;;4658139;30;20117;-93
2023/07/01 08:58:51;;;;;;;5.82;4.05;;;;;;;;;;4671927;30;20049;-93
2023/07/01 09:01:21;;;;;;;4.45;3.47;;;;;;;;;;4701328;30;20049;-93
2023/07/01 09:03:49;;;;;;;4.75;3.90;;;;;;;;;;4689585;30;20065;-92
2023/07/01 09:12:33;;;;;;;4.50;2.63;;;;;;;;;;4712158;30;20087;-93
2023/07/01 09:15:20;;;;;;;4.55;2.88;;;;;;;;;;4715789;30;20169;-93
2023/07/01 09:17:47;;;;;;;4.38;3.30;;;;;;;;;;4709377;30;20415;-92
2023/07/01 09:20:18;;;;;;;6.93;3.17;;;;;;;;;;4696006;30;20062;-91
2023/07/01 09:23:08;;;;;;;4.68;3.42;;;;;;;;;;4743066;29;20047;-93
2023/07/01 09:25:43;;;;;;;3.40;2.90;;;;;;;;;;4777475;29;20059;-92
2023/07/01 09:28:25;;;;;;;4.07;3.20;;;;;;;;;;4781814;29;20857;-91
2023/07/01 09:30:52;;;;;;;4.15;2.90;;;;;;;;;;4794115;29;20061;-93
2023/07/01 09:33:21;;;;;;;3.75;2.78;;;;;;;;;;4771827;29;20134;-94
2023/07/01 09:35:48;;;;;;;3.63;2.88;;;;;;;;;;4777086;29;20424;-92
2023/07/01 09:38:15;;;;;;;3.10;2.58;;;;;;;;;;4773782;29;20170;-94
2023/07/01 09:40:48;;;;;;;3.38;2.55;;;;;;;;;;4830413;29;20045;-91
2023/07/01 09:43:19;;;;;;;5.32;3.40;;;;;;;;;;4804414;29;20039;-93
2023/07/01 09:45:55;;;;;;;4.30;3.17;;;;;;;;;;4820896;29;20022;-92
2023/07/01 09:51:48;;;;;;;4.15;2.70;;;;;;;;;;4749935;30;20329;-93
2023/07/01 09:54:33;;;;;;;3.80;2.75;;;;;;;;;;4746490;29;20051;-93
2023/07/01 09:57:00;;;;;;;4.13;3.22;;;;;;;;;;4792073;29;20038;-93
2023/07/01 09:59:31;;;;;;;4.18;2.90;;;;;;;;;;4831799;29;20041;-93
2023/07/01 10:02:01;;;;;;;6.20;3.97;;;;;;;;;;4798976;29;20110;-93
2023/07/01 10:04:29;;;;;;;2.25;1.70;;;;;;;;;;4830838;29;20030;-93
2023/07/01 10:06:56;;;;;;;2.70;1.88;;;;;;;;;;4808191;29;20045;-94
2023/07/01 10:09:23;;;;;;;2.83;2.15;;;;;;;;;;4813380;29;20034;-93
2023/07/01 10:11:52;;;;;;;4.28;2.25;;;;;;;;;;4795303;29;20026;-93
2023/07/01 10:14:26;;;;;;;3.40;2.38;;;;;;;;;;4811824;29;20042;-93
2023/07/01 10:16:52;;;;;;;4.30;3.05;;;;;;;;;;4813405;29;20080;-92
2023/07/01 10:19:28;;;;;;;3.60;2.70;;;;;;;;;;4794216;29;20420;-92
2023/07/01 10:22:14;;;;;;;6.78;2.50;;;;;;;;;;4809835;29;20065;-91
2023/07/01 10:24:42;;;;;;;3.30;1.27;;;;;;;;;;4820407;29;20043;-92
2023/07/01 10:27:08;;;;;;;3.08;1.83;;;;;;;;;;4808234;29;20050;-92
2023/07/01 10:29:36;;;;;;;1.77;1.50;;;;;;;;;;4788223;29;20444;-92
2023/07/01 10:32:08;;;;;;;2.53;1.55;;;;;;;;;;4808633;29;20043;-93
2023/07/01 10:34:53;;;;;;;2.78;1.95;;;;;;;;;;4813176;29;20046;-91
2023/07/01 10:37:25;;;;;;;9.52;3.70;;;;;;;;;;4835937;29;20110;-91
2023/07/01 10:39:51;;;;;;;11.98;5.70;;;;;;;;;;4818778;29;20042;-91
2023/07/01 10:42:30;;;;;;;6.25;3.08;;;;;;;;;;4821158;29;20018;-92
2023/07/01 10:45:12;;;;;;;5.93;2.70;;;;;;;;;;4811259;29;20027;-91
2023/07/01 10:47:38;;;;;;;6.97;2.40;;;;;;;;;;4832788;29;20907;-92
2023/07/01 10:50:08;;;;;;;3.17;2.35;;;;;;;;;;4821524;29;20045;-92
2023/07/01 10:52:54;;;;;;;3.22;2.45;;;;;;;;;;4824082;29;20130;-92
2023/07/01 10:55:39;;;;;;;5.22;2.22;;;;;;;;;;4828268;29;20228;-92
2023/07/01 10:58:18;;;;;;;4.25;2.63;;;;;;;;;;4815420;29;20031;-92
2023/07/01 11:00:45;;;;;;;6.07;2.38;;;;;;;;;;4820761;29;20023;-91
2023/07/01 11:03:31;;;;;;;3.63;2.53;;;;;;;;;;4813561;29;20093;-91
2023/07/01 11:05:58;;;;;;;;;;;;;;;;;;4816772;29;20525;-92
2023/07/01 11:08:25;;;;;;;6.63;2.80;;;;;;;;;;4828556;29;19917;-91
2023/07/01 11:10:51;;;;;;;6.90;3.15;;;;;;;;;;4800178;29;20031;-92
2023/07/01 11:13:21;;;;;;;5.80;3.10;;;;;;;;;;4822391;29;20037;-93
2023/07/01 11:16:03;;;;;;;4.93;2.53;;;;;;;;;;4799073;29;20015;-92
2023/07/01 11:18:41;;;;;;;6.80;2.92;;;;;;;;;;4815224;29;20034;-95
2023/07/01 11:21:14;;;;;;;4.03;2.88;;;;;;;;;;4808495;29;20418;-93
2023/07/01 11:23:51;;;;;;;5.90;3.50;;;;;;;;;;4824428;29;20049;-93
2023/07/01 11:26:34;;;;;;;5.57;3.58;;;;;;;;;;4812758;29;20431;-92
2023/07/01 11:29:00;;;;;;;8.10;3.83;;;;;;;;;;4811060;29;20111;-93
2023/07/01 11:31:33;;;;;;;12.25;3.55;;;;;;;;;;4791659;29;20023;-93
2023/07/01 11:34:00;;;;;;;8.05;5.22;;;;;;;;;;4821039;29;20309;-94
2023/07/01 11:36:36;;;;;;;10.30;5.93;;;;;;;;;;4808410;29;20663;-93
2023/07/01 11:39:05;;;;;;;11.40;6.63;;;;;;;;;;4820240;29;20065;-93
2023/07/01 11:41:35;;;;;;;11.25;3.75;;;;;;;;;;4825895;29;20043;-93
2023/07/01 11:44:02;;;;;;;9.48;4.50;;;;;;;;;;4826402;29;20074;-93
2023/07/01 11:46:35;;;;;;;8.20;4.07;;;;;;;;;;4801476;29;20034;-91
2023/07/01 11:49:18;;;;;;;11.95;4.45;;;;;;;;;;4805280;29;20089;-91
2023/07/01 11:52:06;;;;;;;9.98;5.28;;;;;;;;;;4791288;29;20400;-91
2023/07/01 11:54:42;;;;;;;7.93;4.70;;;;;;;;;;4801323;29;20065;-93
2023/07/01 11:57:13;;;;;;;8.30;5.22;;;;;;;;;;4829221;29;20054;-92
2023/07/01 11:59:52;;;;;;;;;;;;;;;;;;;;;
2023/07/01 12:02:28;;;;;;;16.05;10.18;;;;;;;;;;4828973;29;20137;-92
2023/07/01 12:04:55;;;;;;;8.23;5.95;;;;;;;;;;4801455;29;20042;-93
2023/07/01 12:07:21;;;;;;;10.85;5.68;;;;;;;;;;4817798;29;20030;-92
2023/07/01 12:09:47;;;;;;;9.98;6.15;;;;;;;;;;4798523;29;20058;-93
2023/07/01 12:12:26;;;;;;;11.98;6.75;;;;;;;;;;4822123;29;20038;-92
2023/07/01 12:15:00;;;;;;;15.27;7.68;;;;;;;;;;4822645;29;20100;-92
2023/07/01 12:17:31;;;;;;;26.58;14.18;;;;;;;;;;4836913;29;20018;-93
2023/07/01 12:19:58;;;;;;;12.35;5.85;;;;;;;;;;4819246;29;20038;-92
2023/07/01 12:22:31;;;;;;;14.95;8.23;;;;;;;;;;4817831;29;20101;-91
2023/07/01 12:25:01;;;;;;;13.07;7.90;;;;;;;;;;4825506;29;20050;-90
2023/07/01 12:27:33;;;;;;;11.48;5.65;;;;;;;;;;4809512;29;20054;-92
2023/07/01 12:30:04;;;;;;;9.88;5.10;;;;;;;;;;4803743;29;20069;-92
2023/07/01 12:32:34;;;;;;;9.10;5.40;;;;;;;;;;4813414;29;20043;-92
2023/07/01 12:35:00;;;;;;;9.25;5.43;;;;;;;;;;4815301;29;20034;-93
2023/07/01 12:37:27;;;;;;;6.55;4.60;;;;;;;;;;4801085;29;20049;-92
2023/07/01 12:40:04;;;;;;;5.35;3.78;;;;;;;;;;4811278;29;20034;-92
2023/07/01 12:42:30;;;;;;;9.93;4.20;;;;;;;;;;4814570;29;20038;-93
2023/07/01 12:44:56;;;;;;;7.78;4.53;;;;;;;;;;4802635;29;20038;-93
2023/07/01 12:47:23;;;;;;;5.45;3.50;;;;;;;;;;4814817;29;20038;-93
2023/07/01 12:49:49;;;;;;;5.50;3.58;;;;;;;;;;4790990;29;20109;-92
2023/07/01 12:52:15;;;;;;;8.88;4.20;;;;;;;;;;4793517;29;20046;-92
2023/07/01 12:54:41;;;;;;;9.18;4.85;;;;;;;;;;4810513;29;20046;-93
2023/07/01 12:57:08;;;;;;;7.53;4.53;;;;;;;;;;4798349;29;20145;-93
2023/07/01 12:59:34;;;;;;;5.60;3.50;;;;;;;;;;4803463;29;20050;-93
2023/07/01 13:02:00;;;;;;;5.35;3.10;;;;;;;;;;4808305;29;20030;-92
2023/07/01 13:04:28;;;;;;;10.52;3.97;;;;;;;;;;4808212;29;20053;-92
2023/07/01 13:06:55;;;;;;;6.28;3.20;;;;;;;;;;4796363;29;20091;-94
2023/07/01 13:09:36;;;;;;;6.00;3.00;;;;;;;;;;4793093;29;20055;-92
2023/07/01 13:12:03;;;;;;;7.63;4.13;;;;;;;;;;4824396;29;20106;-93
2023/07/01 13:14:30;;;;;;;6.68;2.90;;;;;;;;;;4813574;29;20038;-93
2023/07/01 13:16:56;;;;;;;5.55;2.90;;;;;;;;;;4809092;29;20066;-93
2023/07/01 13:19:23;;;;;;;5.60;3.28;;;;;;;;;;4807207;29;20054;-92
2023/07/01 13:21:49;;;;;;;3.28;2.42;;;;;;;;;;4812049;29;20053;-91
2023/07/01 13:24:15;;;;;;;8.30;4.00;;;;;;;;;;4830166;29;20107;-91
2023/07/01 13:26:47;;;;;;;9.07;3.45;;;;;;;;;;4796783;29;20584;-91
2023/07/01 13:29:22;;;;;;;6.20;3.10;;;;;;;;;;4797150;29;20496;-91
2023/07/01 13:31:54;;;;;;;7.57;2.90;;;;;;;;;;4804610;29;20053;-91
2023/07/01 13:34:22;;;;;;;5.78;3.85;;;;;;;;;;4810018;29;20071;-92
2023/07/01 13:36:52;;;;;;;4.40;2.92;;;;;;;;;;4812188;29;20057;-89
2023/07/01 13:39:27;;;;;;;4.30;2.55;;;;;;;;;;4802869;29;20114;-91
2023/07/01 13:41:54;;;;;;;3.10;2.50;;;;;;;;;;4821856;29;20122;-89
2023/07/01 13:44:21;;;;;;;18.27;5.10;;;;;;;;;;4795757;29;20034;-91
2023/07/01 13:46:47;;;;;;;6.90;2.63;;;;;;;;;;4805777;29;20102;-90
2023/07/01 13:49:19;;;;;;;3.25;2.53;;;;;;;;;;4826672;29;20039;-90
2023/07/01 13:51:45;;;;;;;5.82;1.65;;;;;;;;;;4812753;29;20056;-90
2023/07/01 13:54:11;;;;;;;2.85;1.80;;;;;;;;;;4811983;29;20037;-90
2023/07/01 13:56:37;;;;;;;3.65;2.70;;;;;;;;;;4814697;29;20094;-90
2023/07/01 13:59:04;;;;;;;4.88;2.00;;;;;;;;;;4800510;29;20530;-91
2023/07/01 14:01:30;;;;;;;5.20;1.83;;;;;;;;;;4827569;29;20549;-90
2023/07/01 14:04:00;;;;;;;4.18;1.92;;;;;;;;;;4792903;29;22283;-90
2023/07/01 14:06:28;;;;;;;2.38;1.60;;;;;;;;;;4791588;29;20054;-90
2023/07/01 14:08:56;;;;;;;4.25;2.10;;;;;;;;;;4819235;29;20050;-90
2023/07/01 14:11:26;;;;;;;8.05;2.08;;;;;;;;;;4797119;29;20046;-92
2023/07/01 14:13:53;;;;;;;3.90;2.35;;;;;;;;;;4821113;29;20356;-91
2023/07/01 14:16:20;;;;;;;4.88;2.40;;;;;;;;;;4806875;29;20207;-91
2023/07/01 14:18:47;;;;;;;8.65;2.30;;;;;;;;;;4802633;29;20449;-92
2023/07/01 14:21:18;;;;;;;5.43;2.60;;;;;;;;;;4814286;29;20645;-91
2023/07/01 14:23:45;;;;;;;10.20;2.25;;;;;;;;;;4796847;29;20281;-91
2023/07/01 14:26:25;;;;;;;4.03;2.20;;;;;;;;;;4796977;29;20057;-91
2023/07/01 14:28:51;;;;;;;9.57;2.47;;;;;;;;;;4809867;29;20792;-90
2023/07/01 14:31:18;;;;;;;5.30;2.58;;;;;;;;;;4794294;29;20475;-91
2023/07/01 14:33:54;;;;;;;4.05;2.45;;;;;;;;;;4807858;29;20651;-91
2023/07/01 14:36:29;;;;;;;3.78;2.25;;;;;;;;;;4823580;29;20035;-92
2023/07/01 14:38:59;;;;;;;5.78;2.25;;;;;;;;;;4799039;29;20069;-91
2023/07/01 14:41:27;;;;;;;9.55;2.30;;;;;;;;;;4820708;29;20038;-91
2023/07/01 14:43:57;;;;;;;4.10;2.88;;;;;;;;;;4805352;29;20033;-92
2023/07/01 14:46:28;;;;;;;15.20;2.70;;;;;;;;;;4809324;29;20027;-92
2023/07/01 14:48:55;;;;;;;9.13;3.45;;;;;;;;;;4822430;29;20052;-92
2023/07/01 14:51:27;;;;;;;6.65;3.72;;;;;;;;;;4828889;29;20383;-91
2023/07/01 14:53:55;;;;;;;7.40;3.83;;;;;;;;;;4819625;29;20038;-91
2023/07/01 14:56:22;;;;;;;6.35;4.10;;;;;;;;;;4806654;29;20045;-93
2023/07/01 14:58:48;;;;;;;7.72;4.00;;;;;;;;;;4805722;29;20041;-90
2023/07/01 15:01:15;;;;;;;4.97;3.83;;;;;;;;;;4801080;29;20031;-91
2023/07/01 15:03:42;;;;;;;9.27;4.93;;;;;;;;;;4801129;29;20030;-91
2023/07/01 15:06:09;;;;;;;5.10;3.90;;;;;;;;;;4803905;29;20034;-90
2023/07/01 15:08:36;;;;;;;10.13;4.18;;;;;;;;;;4793531;29;20031;-91
2023/07/01 15:11:02;;;;;;;7.28;4.25;;;;;;;;;;4810795;29;20062;-90
2023/07/01 15:13:32;;;;;;;7.88;3.22;;;;;;;;;;4818247;29;20030;-90
2023/07/01 15:15:59;;;;;;;5.53;3.15;;;;;;;;;;4784129;29;20129;-90
2023/07/01 15:18:25;;;;;;;6.15;3.13;;;;;;;;;;4803964;29;20027;-90
2023/07/01 15:20:59;;;;;;;5.55;3.20;;;;;;;;;;4801742;29;20469;-94
2023/07/01 15:23:28;;;;;;;4.75;3.00;;;;;;;;;;4804286;29;20593;-91
2023/07/01 15:25:54;;;;;;;7.47;2.97;;;;;;;;;;4794641;29;20042;-92
2023/07/01 15:28:20;;;;;;;5.38;2.90;;;;;;;;;;4816039;29;20100;-92
2023/07/01 15:31:13;;;;;;;7.90;2.47;;;;;;;;;;4807519;29;20026;-91
2023/07/01 15:33:51;;;;;;;3.08;1.63;;;;;;;;;;4803579;29;20043;-91
2023/07/01 15:36:17;;;;;;;13.50;2.80;;;;;;;;;;4787131;29;20042;-90
2023/07/01 15:38:43;;;;;;;4.28;2.30;;;;;;;;;;4806795;29;20043;-91